createdAt,value
2024-01-20T00:02:24.866Z,101737.88
2024-01-20T00:04:51.766Z,101729.94
2024-01-20T00:07:18.598Z,101725.53
2024-01-20T00:09:50.235Z,101729.88
2024-01-20T00:12:18.123Z,101718.31
2024-01-20T00:14:44.869Z,101722.69
2024-01-20T00:17:20.912Z,101728.84
2024-01-20T00:19:54.104Z,101731.50
2024-01-20T00:22:21.987Z,101736.81
2024-01-20T00:24:48.881Z,101733.19
2024-01-20T00:27:16.273Z,101725.25
2024-01-20T00:29:42.932Z,101726.13
2024-01-20T00:32:09.793Z,101737.59
2024-01-20T00:34:50.576Z,101733.97
2024-01-20T00:37:23.199Z,101735.72
2024-01-20T00:39:49.690Z,101748.00
2024-01-20T00:42:16.132Z,101742.72
2024-01-20T00:44:42.991Z,101755.97
2024-01-20T00:47:09.557Z,101755.97
2024-01-20T00:49:36.215Z,101754.16
2024-01-20T00:52:02.916Z,101755.00
2024-01-20T00:54:29.317Z,101756.75
2024-01-20T00:56:55.910Z,101753.16
2024-01-20T00:59:22.392Z,101747.84
2024-01-20T01:01:48.823Z,101749.53
2024-01-20T01:04:15.224Z,101740.69
2024-01-20T01:06:42.329Z,101741.53
2024-01-20T01:09:09.258Z,101749.41
2024-01-20T01:11:35.727Z,101751.09
2024-01-20T01:14:02.320Z,101757.25
2024-01-20T01:16:28.833Z,101755.47
2024-01-20T01:18:55.230Z,101761.53
2024-01-20T01:21:21.839Z,101756.25
2024-01-20T01:23:48.257Z,101758.81
2024-01-20T01:26:16.163Z,101748.22
2024-01-20T01:28:42.724Z,101754.38
2024-01-20T01:31:09.498Z,101749.91
2024-01-20T01:33:37.595Z,101749.06
2024-01-20T01:36:05.023Z,101757.03
2024-01-20T01:38:31.762Z,101759.66
2024-01-20T01:40:58.788Z,101765.81
2024-01-20T01:43:26.354Z,101769.31
2024-01-20T01:45:52.971Z,101771.13
2024-01-20T01:48:19.654Z,101774.63
2024-01-20T01:50:46.273Z,101777.28
2024-01-20T01:53:14.800Z,101780.69
2024-01-20T01:55:41.971Z,101786.00
2024-01-20T01:58:08.543Z,101783.34
2024-01-20T02:00:35.213Z,101789.59
2024-01-20T02:03:02.420Z,101784.31
2024-01-20T02:05:29.035Z,101790.53
2024-01-20T02:07:58.361Z,101782.56
2024-01-20T02:10:25.166Z,101787.03
2024-01-20T02:12:52.785Z,101785.38
2024-01-20T02:15:19.494Z,101796.00
2024-01-20T02:17:53.626Z,101792.50
2024-01-20T02:20:20.852Z,101803.16
2024-01-20T02:22:47.364Z,101798.88
2024-01-20T02:25:13.869Z,101803.34
2024-01-20T02:27:40.531Z,101813.16
2024-01-20T02:30:07.830Z,101806.16
2024-01-20T02:32:34.518Z,101814.94
2024-01-20T02:35:01.120Z,101815.06
2024-01-20T02:37:27.553Z,101820.34
2024-01-20T02:39:54.070Z,101818.56
2024-01-20T02:42:20.574Z,101820.34
2024-01-20T02:44:47.036Z,101815.06
2024-01-20T02:47:13.510Z,101815.13
2024-01-20T02:49:40.379Z,101825.81
2024-01-20T02:52:07.038Z,101816.22
2024-01-20T02:54:33.781Z,101818.94
2024-01-20T02:57:00.525Z,101823.47
2024-01-20T02:59:26.937Z,101827.06
2024-01-20T03:01:53.490Z,101821.81
2024-01-20T03:04:19.973Z,101832.53
2024-01-20T03:06:46.452Z,101832.59
2024-01-20T03:09:16.270Z,101821.16
2024-01-20T03:11:46.094Z,101834.38
2024-01-20T03:14:12.933Z,101820.34
2024-01-20T03:16:39.589Z,101826.50
2024-01-20T03:19:07.361Z,101836.25
2024-01-20T03:21:34.951Z,101829.25
2024-01-20T03:24:01.956Z,101832.81
2024-01-20T03:26:28.670Z,101832.91
2024-01-20T03:28:55.072Z,101840.94
2024-01-20T03:31:21.583Z,101837.50
2024-01-20T03:33:48.081Z,101835.78
2024-01-20T03:36:14.728Z,101827.91
2024-01-20T03:38:41.146Z,101830.66
2024-01-20T03:41:07.604Z,101828.94
2024-01-20T03:43:34.033Z,101830.72
2024-01-20T03:46:00.489Z,101837.81
2024-01-20T03:48:27.245Z,101835.22
2024-01-20T03:50:53.795Z,101844.13
2024-01-20T03:53:20.228Z,101844.13
2024-01-20T03:55:46.714Z,101845.94
2024-01-20T03:58:13.141Z,101846.84
2024-01-20T04:00:39.558Z,101851.28
2024-01-20T04:03:06.129Z,101855.72
2024-01-20T04:05:32.603Z,101861.03
2024-01-20T04:07:59.007Z,101861.97
2024-01-20T04:10:25.487Z,101862.81
2024-01-20T04:12:51.899Z,101858.38
2024-01-20T04:15:18.405Z,101847.88
2024-01-20T04:17:45.135Z,101860.19
2024-01-20T04:20:11.915Z,101854.88
2024-01-20T04:22:38.314Z,101854.03
2024-01-20T04:25:05.283Z,101855.84
2024-01-20T04:27:31.829Z,101861.19
2024-01-20T04:29:58.320Z,101871.78
2024-01-20T04:32:24.843Z,101869.13
2024-01-20T04:34:51.236Z,101884.06
2024-01-20T04:37:17.696Z,101874.50
2024-01-20T04:39:44.312Z,101882.38
2024-01-20T04:42:10.791Z,101882.38
2024-01-20T04:44:37.256Z,101885.03
2024-01-20T04:47:04.498Z,101888.53
2024-01-20T04:49:31.062Z,101893.75
2024-01-20T04:52:01.512Z,101885.81
2024-01-20T04:54:28.380Z,101885.81
2024-01-20T04:56:54.904Z,101893.66
2024-01-20T04:59:21.308Z,101893.59
2024-01-20T05:01:49.399Z,101897.97
2024-01-20T05:04:16.157Z,101903.09
2024-01-20T05:06:46.674Z,101903.09
2024-01-20T05:09:14.511Z,101900.38
2024-01-20T05:11:41.099Z,101903.88
2024-01-20T05:14:08.700Z,101895.03
2024-01-20T05:16:35.399Z,101895.78
2024-01-20T05:19:02.964Z,101902.88
2024-01-20T05:21:29.621Z,101905.53
2024-01-20T05:23:58.098Z,101906.38
2024-01-20T05:26:25.115Z,101905.53
2024-01-20T05:28:51.551Z,101906.38
2024-01-20T05:31:18.048Z,101905.47
2024-01-20T05:33:44.673Z,101908.09
2024-01-20T05:36:12.824Z,101901.00
2024-01-20T05:38:39.866Z,101906.25
2024-01-20T05:41:08.298Z,101923.00
2024-01-20T05:43:34.807Z,101919.41
2024-01-20T05:46:05.968Z,101920.34
2024-01-20T05:48:33.936Z,101920.41
2024-01-20T05:51:00.473Z,101927.44
2024-01-20T05:53:29.079Z,101923.91
2024-01-20T05:55:55.746Z,101930.09
2024-01-20T05:58:22.315Z,101923.00
2024-01-20T06:00:49.105Z,101938.88
2024-01-20T06:03:15.666Z,101925.72
2024-01-20T06:05:42.194Z,101923.84
2024-01-20T06:08:08.813Z,101933.50
2024-01-20T06:10:35.285Z,101932.66
2024-01-20T06:13:01.712Z,101943.25
2024-01-20T06:15:28.437Z,101948.53
2024-01-20T06:17:55.050Z,101941.53
2024-01-20T06:20:21.537Z,101948.69
2024-01-20T06:22:48.077Z,101936.41
2024-01-20T06:25:14.592Z,101945.34
2024-01-20T06:27:41.055Z,101945.41
2024-01-20T06:30:08.179Z,101950.78
2024-01-20T06:32:34.746Z,101954.44
2024-01-20T06:35:01.178Z,101956.22
2024-01-20T06:37:27.734Z,101966.97
2024-01-20T06:39:54.134Z,101972.28
2024-01-20T06:42:20.598Z,101967.94
2024-01-20T06:44:47.019Z,101967.94
2024-01-20T06:47:13.672Z,101965.28
2024-01-20T06:49:40.990Z,101965.28
2024-01-20T06:52:08.181Z,101967.94
2024-01-20T06:54:34.796Z,101959.97
2024-01-20T06:57:01.336Z,101961.69
2024-01-20T06:59:27.764Z,101952.03
2024-01-20T07:01:54.166Z,101959.13
2024-01-20T07:04:20.633Z,101958.25
2024-01-20T07:06:47.213Z,101971.56
2024-01-20T07:09:14.745Z,101964.50
2024-01-20T07:11:41.491Z,101982.16
2024-01-20T07:14:08.182Z,101971.56
2024-01-20T07:16:34.650Z,101979.44
2024-01-20T07:19:01.238Z,101983.03
2024-01-20T07:21:27.900Z,101980.38
2024-01-20T07:23:54.391Z,101986.47
2024-01-20T07:26:20.920Z,101990.91
2024-01-20T07:28:47.557Z,101986.47
2024-01-20T07:31:14.044Z,101997.91
2024-01-20T07:33:41.957Z,101990.75
2024-01-20T07:36:08.711Z,101996.91
2024-01-20T07:38:35.146Z,102003.06
2024-01-20T07:41:02.379Z,102003.91
2024-01-20T07:43:28.981Z,102004.69
2024-01-20T07:45:55.575Z,102011.69
2024-01-20T07:48:22.750Z,102016.09
2024-01-20T07:50:49.724Z,102022.19
2024-01-20T07:53:16.243Z,102017.66
2024-01-20T07:55:43.529Z,102022.88
2024-01-20T07:58:10.036Z,102023.66
2024-01-20T08:00:36.761Z,102026.22
2024-01-20T08:03:04.254Z,102041.22
2024-01-20T08:05:33.640Z,102033.16
2024-01-20T08:08:01.701Z,102045.41
2024-01-20T08:10:28.124Z,102046.22
2024-01-20T08:12:54.577Z,102057.59
2024-01-20T08:15:21.301Z,102059.31
2024-01-20T08:17:47.859Z,102046.00
2024-01-20T08:20:14.393Z,102052.09
2024-01-20T08:22:40.802Z,102051.19
2024-01-20T08:25:07.684Z,102041.38
2024-01-20T08:27:34.217Z,102045.78
2024-01-20T08:30:00.891Z,102041.25
2024-01-20T08:32:27.406Z,102042.97
2024-01-20T08:34:53.934Z,102046.38
2024-01-20T08:37:20.355Z,102045.38
2024-01-20T08:39:46.736Z,102053.25
2024-01-20T08:42:13.210Z,102051.41
2024-01-20T08:44:39.869Z,102053.97
2024-01-20T08:47:06.378Z,102067.16
2024-01-20T08:49:33.032Z,102067.16
2024-01-20T08:51:59.428Z,102063.56
2024-01-20T08:54:25.861Z,102059.06
2024-01-20T08:56:52.349Z,102059.91
2024-01-20T08:59:20.582Z,102052.84
2024-01-20T09:01:47.091Z,102054.53
2024-01-20T09:04:14.777Z,102056.34
2024-01-20T09:06:41.417Z,102070.44
2024-01-20T09:09:08.038Z,102068.75
2024-01-20T09:11:34.577Z,102067.78
2024-01-20T09:14:01.013Z,102069.59
2024-01-20T09:16:27.429Z,102066.00
2024-01-20T09:18:54.094Z,102078.31
2024-01-20T09:21:20.676Z,102072.94
2024-01-20T09:23:47.190Z,102066.69
2024-01-20T09:26:13.636Z,102074.53
2024-01-20T09:28:40.062Z,102078.88
2024-01-20T09:31:06.500Z,102080.59
2024-01-20T09:33:33.164Z,102084.88
2024-01-20T09:35:59.780Z,102091.06
2024-01-20T09:38:29.468Z,102092.78
2024-01-20T09:40:59.752Z,102087.47
2024-01-20T09:43:26.541Z,102086.63
2024-01-20T09:45:53.838Z,102090.06
2024-01-20T09:48:20.677Z,102088.25
2024-01-20T09:50:48.657Z,102097.91
2024-01-20T09:53:17.345Z,102096.91
2024-01-20T09:55:45.777Z,102102.91
2024-01-20T09:58:13.509Z,102102.78
2024-01-20T10:00:41.858Z,102106.13
2024-01-20T10:03:13.206Z,102108.63
2024-01-20T10:05:40.034Z,102111.22
2024-01-20T10:08:07.350Z,102116.53
2024-01-20T10:10:34.877Z,102117.44
2024-01-20T10:13:04.516Z,102127.13
2024-01-20T10:15:34.284Z,102126.34
2024-01-20T10:18:09.292Z,102126.41
2024-01-20T10:20:37.562Z,102123.00
2024-01-20T10:23:06.314Z,102125.69
2024-01-20T10:25:33.103Z,102131.06
2024-01-20T10:28:00.163Z,102123.22
2024-01-20T10:30:27.301Z,102117.91
2024-01-20T10:33:04.359Z,102121.41
2024-01-20T10:35:36.468Z,102123.13
2024-01-20T10:38:10.274Z,102117.75
2024-01-20T10:40:40.011Z,102123.00
2024-01-20T10:43:15.045Z,102121.97
2024-01-20T10:45:47.735Z,102125.38
2024-01-20T10:48:18.365Z,102129.78
2024-01-20T10:50:47.551Z,102133.28
2024-01-20T10:53:14.219Z,102134.13
2024-01-20T10:55:42.110Z,102141.19
2024-01-20T10:58:09.756Z,102141.09
2024-01-20T11:00:38.713Z,102142.72
2024-01-20T11:03:07.125Z,102151.53
2024-01-20T11:05:34.036Z,102150.63
2024-01-20T11:08:09.737Z,102148.72
2024-01-20T11:10:43.008Z,102144.16
2024-01-20T11:13:11.470Z,102137.09
2024-01-20T11:15:40.658Z,102140.72
2024-01-20T11:18:18.515Z,102139.00
2024-01-20T11:20:58.176Z,102146.00
2024-01-20T11:23:25.726Z,102142.41
2024-01-20T11:25:52.467Z,102144.94
2024-01-20T11:28:33.128Z,102145.69
2024-01-20T11:31:00.739Z,102143.84
2024-01-20T11:33:27.789Z,102147.28
2024-01-20T11:35:54.593Z,102142.75
2024-01-20T11:38:21.970Z,102137.28
2024-01-20T11:40:58.932Z,102131.81
2024-01-20T11:43:25.360Z,102125.44
2024-01-20T11:45:51.831Z,102134.03
2024-01-20T11:48:19.459Z,102132.13
2024-01-20T11:50:46.147Z,102130.19
2024-01-20T11:53:12.757Z,102118.56
2024-01-20T11:55:39.200Z,102122.75
2024-01-20T11:58:05.604Z,102122.59
2024-01-20T12:00:32.250Z,102123.31
2024-01-20T12:03:00.394Z,102121.50
2024-01-20T12:05:27.009Z,102113.56
2024-01-20T12:07:53.688Z,102107.38
2024-01-20T12:10:20.228Z,102110.09
2024-01-20T12:12:46.650Z,102106.66
2024-01-20T12:15:15.998Z,102108.41
2024-01-20T12:17:42.609Z,102109.41
2024-01-20T12:20:10.374Z,102103.25
2024-01-20T12:22:37.031Z,102104.19
2024-01-20T12:25:04.094Z,102105.91
2024-01-20T12:27:30.832Z,102106.75
2024-01-20T12:29:57.322Z,102090.91
2024-01-20T12:32:24.641Z,102087.47
2024-01-20T12:34:51.158Z,102091.91
2024-01-20T12:37:17.676Z,102092.03
2024-01-20T12:39:44.380Z,102084.19
2024-01-20T12:42:10.888Z,102089.66
2024-01-20T12:44:37.554Z,102086.25
2024-01-20T12:47:04.226Z,102084.50
2024-01-20T12:49:31.750Z,102090.69
2024-01-20T12:51:58.450Z,102087.97
2024-01-20T12:54:25.128Z,102095.75
2024-01-20T12:56:51.788Z,102094.69
2024-01-20T12:59:18.195Z,102090.91
2024-01-20T13:01:44.851Z,102082.72
2024-01-20T13:04:11.358Z,102073.63
2024-01-20T13:06:37.817Z,102073.50
2024-01-20T13:09:04.770Z,102075.03
2024-01-20T13:11:31.714Z,102066.88
2024-01-20T13:13:59.736Z,102064.09
2024-01-20T13:16:26.510Z,102056.88
2024-01-20T13:18:54.272Z,102057.59
2024-01-20T13:21:23.253Z,102065.28
2024-01-20T13:23:50.351Z,102066.84
2024-01-20T13:26:17.850Z,102078.00
2024-01-20T13:28:47.038Z,102070.56
2024-01-20T13:31:13.516Z,102073.75
2024-01-20T13:33:39.981Z,102077.75
2024-01-20T13:36:06.820Z,102071.19
2024-01-20T13:38:33.580Z,102074.38
2024-01-20T13:40:59.987Z,102073.16
2024-01-20T13:43:26.546Z,102081.81
2024-01-20T13:45:53.035Z,102074.63
2024-01-20T13:48:19.628Z,102078.06
2024-01-20T13:50:46.200Z,102070.06
2024-01-20T13:53:12.623Z,102061.22
2024-01-20T13:55:39.072Z,102069.28
2024-01-20T13:58:05.493Z,102072.03
2024-01-20T14:00:31.950Z,102063.19
2024-01-20T14:02:58.490Z,102071.34
2024-01-20T14:05:25.032Z,102079.41
2024-01-20T14:07:51.466Z,102077.69
2024-01-20T14:10:17.980Z,102076.06
2024-01-20T14:12:44.460Z,102079.56
2024-01-20T14:15:11.414Z,102081.28
2024-01-20T14:17:37.969Z,102074.09
2024-01-20T14:20:04.818Z,102077.53
2024-01-20T14:22:31.359Z,102079.94
2024-01-20T14:24:57.769Z,102072.75
2024-01-20T14:27:24.239Z,102069.03
2024-01-20T14:29:50.864Z,102066.22
2024-01-20T14:32:17.299Z,102074.00
2024-01-20T14:34:43.769Z,102077.53
2024-01-20T14:37:10.422Z,102077.53
2024-01-20T14:39:36.895Z,102079.22
2024-01-20T14:42:03.710Z,102085.44
2024-01-20T14:44:30.184Z,102084.53
2024-01-20T14:46:56.587Z,102073.91
2024-01-20T14:49:23.761Z,102083.69
2024-01-20T14:51:50.411Z,102073.22
2024-01-20T14:54:16.957Z,102070.69
2024-01-20T14:56:43.384Z,102075.28
2024-01-20T14:59:10.237Z,102072.88
2024-01-20T15:01:38.040Z,102075.72
2024-01-20T15:04:05.976Z,102078.56
2024-01-20T15:06:33.132Z,102077.09
2024-01-20T15:09:00.124Z,102077.34
2024-01-20T15:11:26.832Z,102067.91
2024-01-20T15:13:53.384Z,102080.59
2024-01-20T15:16:20.064Z,102084.44
2024-01-20T15:18:46.575Z,102080.34
2024-01-20T15:21:13.140Z,102083.22
2024-01-20T15:23:39.608Z,102080.91
2024-01-20T15:26:06.139Z,102080.19
2024-01-20T15:28:32.578Z,102080.53
2024-01-20T15:30:59.020Z,102076.41
2024-01-20T15:33:25.538Z,102081.19
2024-01-20T15:35:52.118Z,102083.22
2024-01-20T15:38:18.975Z,102083.56
2024-01-20T15:40:45.420Z,102088.25
2024-01-20T15:43:11.913Z,102082.31
2024-01-20T15:45:38.868Z,102089.66
2024-01-20T15:48:06.078Z,102079.44
2024-01-20T15:50:32.639Z,102072.66
2024-01-20T15:52:59.068Z,102083.59
2024-01-20T15:55:25.515Z,102091.00
2024-01-20T15:57:51.965Z,102082.50
2024-01-20T16:00:18.462Z,102078.44
2024-01-20T16:02:45.199Z,102074.38
2024-01-20T16:05:11.681Z,102076.47
2024-01-20T16:07:38.131Z,102080.31
2024-01-20T16:10:05.037Z,102075.28
2024-01-20T16:12:31.443Z,102081.69
2024-01-20T16:14:58.978Z,102080.19
2024-01-20T16:17:25.527Z,102076.06
2024-01-20T16:19:52.046Z,102079.78
2024-01-20T16:22:18.467Z,102081.78
2024-01-20T16:24:45.081Z,102070.53
2024-01-20T16:27:11.536Z,102076.00
2024-01-20T16:29:37.960Z,102071.75
2024-01-20T16:32:06.560Z,102071.06
2024-01-20T16:34:33.187Z,102076.50
2024-01-20T16:36:59.733Z,102081.97
2024-01-20T16:39:26.273Z,102074.22
2024-01-20T16:41:54.471Z,102083.22
2024-01-20T16:44:20.943Z,102081.59
2024-01-20T16:46:52.344Z,102076.38
2024-01-20T16:49:19.977Z,102082.72
2024-01-20T16:51:47.583Z,102085.53
2024-01-20T16:54:15.160Z,102069.78
2024-01-20T16:56:42.127Z,102067.19
2024-01-20T16:59:10.404Z,102067.34
2024-01-20T17:01:37.921Z,102071.84
2024-01-20T17:04:04.777Z,102081.69
2024-01-20T17:06:31.854Z,102074.72
2024-01-20T17:08:58.468Z,102083.59
2024-01-20T17:11:24.917Z,102081.03
2024-01-20T17:13:54.320Z,102086.38
2024-01-20T17:16:22.049Z,102083.81
2024-01-20T17:18:48.599Z,102084.66
2024-01-20T17:21:17.143Z,102082.94
2024-01-20T17:23:44.699Z,102082.06
2024-01-20T17:26:11.867Z,102083.88
2024-01-20T17:28:38.370Z,102080.38
2024-01-20T17:31:05.834Z,102081.22
2024-01-20T17:33:32.702Z,102086.53
2024-01-20T17:35:59.267Z,102074.22
2024-01-20T17:38:25.771Z,102072.47
2024-01-20T17:40:52.311Z,102069.84
2024-01-20T17:43:18.797Z,102075.22
2024-01-20T17:45:49.066Z,102078.72
2024-01-20T17:48:16.494Z,102079.63
2024-01-20T17:50:43.069Z,102080.53
2024-01-20T17:53:09.470Z,102081.38
2024-01-20T17:55:35.862Z,102092.81
2024-01-20T17:58:02.462Z,102085.72
2024-01-20T18:00:29.709Z,102088.38
2024-01-20T18:02:56.298Z,102083.88
2024-01-20T18:05:23.570Z,102082.94
2024-01-20T18:07:51.076Z,102082.94
2024-01-20T18:10:19.826Z,102074.06
2024-01-20T18:12:47.149Z,102078.53
2024-01-20T18:15:14.587Z,102077.56
2024-01-20T18:17:42.750Z,102076.63
2024-01-20T18:20:09.345Z,102090.75
2024-01-20T18:22:36.004Z,102089.81
2024-01-20T18:25:03.081Z,102085.31
2024-01-20T18:27:29.547Z,102082.66
2024-01-20T18:29:57.035Z,102084.38
2024-01-20T18:32:25.077Z,102089.66
2024-01-20T18:34:51.731Z,102100.22
2024-01-20T18:37:18.305Z,102099.28
2024-01-20T18:39:44.914Z,102096.56
2024-01-20T18:42:11.444Z,102081.53
2024-01-20T18:44:37.908Z,102086.81
2024-01-20T18:47:05.453Z,102085.03
2024-01-20T18:49:32.098Z,102086.81
2024-01-20T18:52:00.828Z,102093.78
2024-01-20T18:54:27.378Z,102080.53
2024-01-20T18:56:54.460Z,102080.53
2024-01-20T18:59:20.959Z,102078.78
2024-01-20T19:01:47.871Z,102078.78
2024-01-20T19:04:14.331Z,102077.09
2024-01-20T19:06:40.909Z,102076.28
2024-01-20T19:09:10.314Z,102083.38
2024-01-20T19:11:36.757Z,102080.03
2024-01-20T19:14:04.971Z,102076.53
2024-01-20T19:16:33.540Z,102074.78
2024-01-20T19:19:00.126Z,102077.53
2024-01-20T19:21:26.633Z,102082.81
2024-01-20T19:23:53.289Z,102074.06
2024-01-20T19:26:19.695Z,102079.44
2024-01-20T19:28:46.660Z,102069.69
2024-01-20T19:31:14.392Z,102063.63
2024-01-20T19:33:46.407Z,102063.53
2024-01-20T19:36:13.192Z,102060.03
2024-01-20T19:38:39.960Z,102050.41
2024-01-20T19:41:06.382Z,102047.75
2024-01-20T19:43:34.726Z,102055.59
2024-01-20T19:46:01.198Z,102044.16
2024-01-20T19:48:27.802Z,102052.91
2024-01-20T19:50:57.504Z,102039.66
2024-01-20T19:53:24.365Z,102049.31
2024-01-20T19:55:51.398Z,102040.44
2024-01-20T19:58:17.873Z,102044.81
2024-01-20T20:00:49.086Z,102047.41
2024-01-20T20:03:16.020Z,102046.44
2024-01-20T20:05:45.468Z,102054.31
2024-01-20T20:08:13.494Z,102049.00
2024-01-20T20:10:39.963Z,102056.03
2024-01-20T20:13:06.375Z,102057.84
2024-01-20T20:15:33.152Z,102049.91
2024-01-20T20:17:59.734Z,102045.50
2024-01-20T20:20:26.309Z,102044.66
2024-01-20T20:22:52.858Z,102043.81
2024-01-20T20:25:19.468Z,102037.66
2024-01-20T20:27:46.015Z,102033.28
2024-01-20T20:30:12.920Z,102035.16
2024-01-20T20:32:40.643Z,102022.03
2024-01-20T20:35:07.498Z,102016.72
2024-01-20T20:37:34.085Z,102011.59
2024-01-20T20:40:00.525Z,102021.38
2024-01-20T20:42:26.987Z,102015.38
2024-01-20T20:44:53.892Z,102018.09
2024-01-20T20:47:21.260Z,102022.53
2024-01-20T20:49:49.347Z,102023.53
2024-01-20T20:52:16.131Z,102023.53
2024-01-20T20:54:42.574Z,102010.38
2024-01-20T20:57:10.137Z,102014.81
2024-01-20T20:59:37.499Z,102016.59
2024-01-20T21:02:05.926Z,102017.59
2024-01-20T21:04:32.566Z,102015.88
2024-01-20T21:07:01.164Z,102002.72
2024-01-20T21:09:27.737Z,102003.66
2024-01-20T21:11:54.212Z,102006.28
2024-01-20T21:14:20.930Z,101996.66
2024-01-20T21:16:48.122Z,101998.34
2024-01-20T21:19:14.848Z,101996.66
2024-01-20T21:21:41.616Z,102001.00
2024-01-20T21:24:09.769Z,101993.00
2024-01-20T21:26:36.326Z,101993.75
2024-01-20T21:29:03.002Z,101976.03
2024-01-20T21:31:29.487Z,101982.13
2024-01-20T21:33:56.097Z,101981.97
2024-01-20T21:36:24.060Z,101979.19
2024-01-20T21:38:50.634Z,101972.03
2024-01-20T21:41:17.054Z,101978.03
2024-01-20T21:43:43.509Z,101968.31
2024-01-20T21:46:10.988Z,101967.38
2024-01-20T21:48:38.015Z,101965.56
2024-01-20T21:51:04.906Z,101950.53
2024-01-20T21:53:31.361Z,101953.19
2024-01-20T21:55:57.774Z,101954.13
2024-01-20T21:58:24.226Z,101955.09
2024-01-20T22:00:50.720Z,101948.84
2024-01-20T22:03:17.234Z,101941.84
2024-01-20T22:05:44.120Z,101954.13
2024-01-20T22:08:10.612Z,101950.53
2024-01-20T22:10:37.150Z,101947.91
2024-01-20T22:13:03.703Z,101946.13
2024-01-20T22:15:30.199Z,101956.56
2024-01-20T22:17:56.769Z,101954.78
2024-01-20T22:20:24.189Z,101955.56
2024-01-20T22:22:51.104Z,101962.56
2024-01-20T22:25:17.678Z,101951.91
2024-01-20T22:27:44.136Z,101953.63
2024-01-20T22:30:11.502Z,101947.47
2024-01-20T22:32:39.282Z,101939.53
2024-01-20T22:35:06.539Z,101930.78
2024-01-20T22:37:33.534Z,101937.94
2024-01-20T22:40:00.260Z,101936.25
2024-01-20T22:42:26.783Z,101931.09
2024-01-20T22:44:53.205Z,101920.66
2024-01-20T22:47:19.666Z,101927.81
2024-01-20T22:49:46.194Z,101917.38
2024-01-20T22:52:12.691Z,101914.00
2024-01-20T22:54:39.436Z,101916.78
2024-01-20T22:57:07.501Z,101915.25
2024-01-20T22:59:33.916Z,101913.59
2024-01-20T23:02:00.383Z,101921.66
2024-01-20T23:04:26.936Z,101928.84
2024-01-20T23:06:53.662Z,101922.75
2024-01-20T23:09:20.532Z,101929.91
2024-01-20T23:11:47.108Z,101930.03
2024-01-20T23:14:13.742Z,101927.44
2024-01-20T23:16:40.254Z,101921.41
2024-01-20T23:19:06.792Z,101920.50
2024-01-20T23:21:33.262Z,101917.09
2024-01-20T23:23:59.748Z,101912.72
2024-01-20T23:26:26.553Z,101913.66
2024-01-20T23:28:52.932Z,101904.88
2024-01-20T23:31:19.427Z,101899.50
2024-01-20T23:33:46.034Z,101902.16
2024-01-20T23:36:13.510Z,101896.78
2024-01-20T23:38:39.951Z,101886.13
2024-01-20T23:41:06.632Z,101886.00
2024-01-20T23:43:33.029Z,101877.91
2024-01-20T23:45:59.499Z,101879.47
2024-01-20T23:48:25.984Z,101861.72
2024-01-20T23:50:52.370Z,101860.66
2024-01-20T23:53:19.044Z,101854.38
2024-01-20T23:55:45.611Z,101848.06
2024-01-20T23:58:12.078Z,101847.91
